Time;durP1;ratioP1;P1;durP2;ratioP2;P2;SDS_P1;SDS_P2;PMS_P1;PMS_P2;Temp;Humidity;BMP_temperature;BMP_pressure;BME280_temperature;BME280_humidity;BME280_pressure;Samples;Min_cycle;Max_cycle;Signal;HPM_P1;HPM_P2
2023/11/23 00:02:05;;;;;;;7.07;4.33;;;3.20;99.90;;;;;;4936504;29;20028;-75
2023/11/23 00:04:31;;;;;;;9.05;4.90;;;3.20;99.90;;;;;;4936235;29;20023;-81
2023/11/23 00:06:57;;;;;;;8.73;4.40;;;3.20;99.90;;;;;;4936354;29;20031;-75
2023/11/23 00:09:24;;;;;;;9.27;5.03;;;3.30;99.90;;;;;;4936367;29;20123;-75
2023/11/23 00:11:50;;;;;;;6.60;4.07;;;3.20;99.90;;;;;;4935872;29;20138;-75
2023/11/23 00:14:16;;;;;;;8.83;4.80;;;3.30;99.90;;;;;;4936463;29;20480;-75
2023/11/23 00:16:43;;;;;;;10.43;4.93;;;3.30;99.90;;;;;;4935695;29;20036;-75
2023/11/23 00:19:09;;;;;;;8.50;4.87;;;3.40;99.90;;;;;;4937382;29;20074;-75
2023/11/23 00:21:35;;;;;;;10.63;5.93;;;3.50;99.90;;;;;;4935494;29;20075;-75
2023/11/23 00:24:01;;;;;;;11.80;5.73;;;3.50;99.90;;;;;;4935993;29;20034;-74
2023/11/23 00:26:26;;;;;;;9.63;5.30;;;3.50;99.90;;;;;;4935999;29;20122;-74
2023/11/23 00:28:52;;;;;;;9.43;5.57;;;3.60;99.90;;;;;;4936777;29;20111;-74
2023/11/23 00:31:17;;;;;;;10.17;5.40;;;3.60;99.90;;;;;;4936829;29;20031;-75
2023/11/23 00:33:43;;;;;;;11.37;5.90;;;3.60;99.90;;;;;;4935425;29;20066;-74
2023/11/23 00:36:09;;;;;;;11.60;5.60;;;3.50;99.90;;;;;;4935846;29;20063;-74
2023/11/23 00:38:35;;;;;;;11.83;6.03;;;3.40;99.90;;;;;;4935380;29;20425;-75
2023/11/23 00:41:00;;;;;;;12.23;6.67;;;3.40;99.90;;;;;;4935807;29;20062;-74
2023/11/23 00:43:26;;;;;;;13.33;5.77;;;3.40;99.90;;;;;;4935754;29;20038;-74
2023/11/23 00:45:52;;;;;;;12.07;6.53;;;3.40;99.90;;;;;;4936371;29;20176;-74
2023/11/23 00:48:17;;;;;;;12.07;6.00;;;3.30;99.90;;;;;;4935808;29;20384;-75
2023/11/23 00:50:43;;;;;;;10.63;6.00;;;3.40;99.90;;;;;;4934934;29;20036;-74
2023/11/23 00:53:08;;;;;;;14.33;6.33;;;3.40;99.90;;;;;;4937010;29;20036;-74
2023/11/23 00:55:36;;;;;;;11.47;6.30;;;3.40;99.90;;;;;;4936448;29;20146;-77
2023/11/23 00:58:02;;;;;;;11.30;6.20;;;3.40;99.90;;;;;;4935339;29;20039;-75
2023/11/23 01:00:28;;;;;;;13.97;5.90;;;3.30;99.90;;;;;;4935457;29;20031;-74
2023/11/23 01:02:54;;;;;;;12.80;5.73;;;3.40;99.90;;;;;;4934578;29;20329;-74
2023/11/23 01:05:20;;;;;;;11.07;6.03;;;3.40;99.90;;;;;;4935300;29;20031;-74
2023/11/23 01:07:45;;;;;;;8.77;5.37;;;3.30;99.90;;;;;;4935779;29;20028;-75
2023/11/23 01:10:11;;;;;;;10.30;5.37;;;3.40;99.90;;;;;;4935172;29;20380;-75
2023/11/23 01:12:37;;;;;;;9.50;5.30;;;3.40;99.90;;;;;;4934700;29;20126;-75
2023/11/23 01:15:03;;;;;;;10.23;5.47;;;3.30;99.90;;;;;;4936555;29;20039;-74
2023/11/23 01:17:28;;;;;;;8.97;4.93;;;3.30;99.90;;;;;;4934842;29;20035;-75
2023/11/23 01:19:54;;;;;;;10.60;5.67;;;3.30;99.90;;;;;;4934635;29;20024;-75
2023/11/23 01:22:20;;;;;;;8.57;4.83;;;3.30;99.90;;;;;;4965371;28;20054;-74
2023/11/23 01:24:45;;;;;;;8.97;4.97;;;3.20;99.90;;;;;;4974212;28;20069;-74
2023/11/23 01:27:11;;;;;;;9.93;5.13;;;3.20;99.90;;;;;;4957137;28;20030;-75
2023/11/23 01:29:36;;;;;;;8.33;5.23;;;3.20;99.90;;;;;;4954814;29;20567;-76
2023/11/23 01:32:02;;;;;;;10.00;4.80;;;3.30;99.90;;;;;;4970021;28;20030;-74
2023/11/23 01:34:28;;;;;;;10.47;4.53;;;3.20;99.90;;;;;;4938121;29;20143;-74
2023/11/23 01:36:53;;;;;;;8.83;4.47;;;3.30;99.90;;;;;;4969118;28;20042;-74
2023/11/23 01:39:19;;;;;;;7.83;4.27;;;3.20;99.90;;;;;;4937983;29;20121;-74
2023/11/23 01:41:44;;;;;;;10.37;4.53;;;3.20;99.90;;;;;;4954694;29;20468;-74
2023/11/23 01:44:12;;;;;;;8.37;4.43;;;3.10;99.90;;;;;;4970001;28;20078;-74
2023/11/23 01:46:38;;;;;;;9.70;4.83;;;3.10;99.90;;;;;;4954532;29;20054;-75
2023/11/23 01:49:06;;;;;;;8.83;4.60;;;3.10;99.90;;;;;;4954715;29;20066;-74
2023/11/23 01:51:32;;;;;;;9.53;4.50;;;3.10;99.90;;;;;;4955060;29;20039;-74
2023/11/23 01:53:58;;;;;;;8.97;4.70;;;3.00;99.90;;;;;;4954471;29;20035;-74
2023/11/23 01:56:26;;;;;;;9.07;4.87;;;3.00;99.90;;;;;;4954842;29;20118;-74
2023/11/23 01:58:52;;;;;;;11.70;4.97;;;3.00;99.90;;;;;;4969350;28;20035;-74
2023/11/23 02:01:18;;;;;;;9.73;4.70;;;2.90;99.90;;;;;;4954953;29;20130;-74
2023/11/23 02:03:45;;;;;;;8.63;4.77;;;2.90;99.90;;;;;;4969127;28;20031;-74
2023/11/23 02:06:12;;;;;;;10.27;4.77;;;2.90;99.90;;;;;;4969539;28;20050;-74
2023/11/23 02:08:39;;;;;;;10.73;5.13;;;2.90;99.90;;;;;;4969824;28;20027;-74
2023/11/23 02:11:06;;;;;;;8.83;5.03;;;2.80;99.90;;;;;;4937755;29;20424;-74
2023/11/23 02:13:33;;;;;;;10.47;4.77;;;2.80;99.90;;;;;;4968921;28;20427;-74
2023/11/23 02:15:59;;;;;;;9.80;4.73;;;2.80;99.90;;;;;;4954274;29;20322;-74
2023/11/23 02:18:25;;;;;;;8.23;4.87;;;2.70;99.90;;;;;;4937422;29;20032;-74
2023/11/23 02:20:51;;;;;;;9.57;5.03;;;2.80;99.90;;;;;;4966233;28;20051;-74
2023/11/23 02:23:16;;;;;;;8.37;4.47;;;2.70;99.90;;;;;;4918523;29;20032;-73
2023/11/23 02:25:42;;;;;;;7.30;4.87;;;2.70;99.90;;;;;;4918058;29;20032;-75
2023/11/23 02:28:08;;;;;;;9.40;4.47;;;2.70;99.90;;;;;;4918495;29;20027;-74
2023/11/23 02:30:34;;;;;;;10.33;4.70;;;2.70;99.90;;;;;;4918391;29;20414;-74
2023/11/23 02:33:01;;;;;;;8.40;4.87;;;2.60;99.90;;;;;;4935185;29;20369;-74
2023/11/23 02:35:27;;;;;;;9.37;4.60;;;2.60;99.90;;;;;;4918321;29;20123;-74
2023/11/23 02:37:53;;;;;;;10.17;5.50;;;2.60;99.90;;;;;;4917967;29;20059;-74
2023/11/23 02:40:19;;;;;;;11.53;5.17;;;2.60;99.90;;;;;;4935361;29;20107;-74
2023/11/23 02:42:44;;;;;;;10.33;4.93;;;2.60;99.90;;;;;;4917835;29;20532;-74
2023/11/23 02:45:10;;;;;;;10.10;5.57;;;2.60;99.90;;;;;;4935265;29;20435;-74
2023/11/23 02:47:36;;;;;;;10.20;5.10;;;2.50;99.90;;;;;;4918268;29;20031;-74
2023/11/23 02:50:04;;;;;;;9.97;5.03;;;2.60;99.90;;;;;;4917678;29;20028;-74
2023/11/23 02:52:30;;;;;;;11.20;5.00;;;2.50;99.90;;;;;;4918178;29;20040;-74
2023/11/23 02:54:56;;;;;;;10.63;4.90;;;2.50;99.90;;;;;;4934723;29;20038;-74
2023/11/23 02:57:22;;;;;;;12.13;5.43;;;2.50;99.90;;;;;;4918257;29;20032;-74
2023/11/23 02:59:51;;;;;;;9.53;5.47;;;2.50;99.90;;;;;;4917619;29;20046;-74
2023/11/23 03:02:16;;;;;;;11.60;6.13;;;2.50;99.90;;;;;;4918065;29;20028;-74
2023/11/23 03:04:42;;;;;;;10.27;5.17;;;2.50;99.90;;;;;;4917561;29;20099;-78
2023/11/23 03:07:08;;;;;;;10.33;5.30;;;2.50;99.90;;;;;;4935084;29;20028;-73
2023/11/23 03:09:34;;;;;;;11.13;5.97;;;2.40;99.90;;;;;;4918048;29;20059;-74
2023/11/23 03:12:00;;;;;;;11.13;5.63;;;2.40;99.90;;;;;;4917566;29;20503;-74
2023/11/23 03:14:25;;;;;;;11.07;5.63;;;2.40;99.90;;;;;;4918034;29;20035;-74
2023/11/23 03:16:52;;;;;;;11.80;6.47;;;2.40;99.90;;;;;;4917420;29;20126;-74
2023/11/23 03:19:17;;;;;;;10.53;5.43;;;2.40;99.90;;;;;;4934749;29;20082;-74
2023/11/23 03:21:43;;;;;;;10.40;5.53;;;2.40;99.90;;;;;;4933119;29;20510;-76
2023/11/23 03:24:09;;;;;;;11.57;5.77;;;2.40;99.90;;;;;;4969356;28;20247;-74
2023/11/23 03:26:36;;;;;;;12.23;5.93;;;2.40;99.90;;;;;;4956338;29;20031;-74
2023/11/23 03:29:03;;;;;;;10.93;5.37;;;2.40;99.90;;;;;;4957036;28;20452;-74
2023/11/23 03:31:28;;;;;;;10.87;5.87;;;2.30;99.90;;;;;;4956299;29;20027;-74
2023/11/23 03:33:54;;;;;;;13.93;6.90;;;2.40;99.90;;;;;;4955772;29;20029;-74
2023/11/23 03:36:20;;;;;;;12.77;6.57;;;2.40;99.90;;;;;;4956186;29;20035;-74
2023/11/23 03:38:45;;;;;;;12.37;6.80;;;2.40;99.90;;;;;;4955668;29;20043;-74
2023/11/23 03:41:11;;;;;;;14.67;6.63;;;2.40;99.90;;;;;;4972556;28;20033;-74
2023/11/23 03:43:36;;;;;;;11.93;6.33;;;2.40;99.90;;;;;;4957388;29;20107;-74
2023/11/23 03:46:02;;;;;;;12.50;6.00;;;2.40;99.90;;;;;;4956685;29;20118;-74
2023/11/23 03:48:28;;;;;;;12.47;6.40;;;2.40;99.90;;;;;;4972076;28;20038;-73
2023/11/23 03:50:53;;;;;;;14.87;6.30;;;2.30;99.90;;;;;;4956458;29;20118;-74
2023/11/23 03:53:19;;;;;;;10.80;6.20;;;2.30;99.90;;;;;;4955573;29;20031;-74
2023/11/23 03:55:45;;;;;;;15.43;6.67;;;2.30;99.90;;;;;;4956508;29;20090;-78
2023/11/23 03:58:11;;;;;;;13.53;7.00;;;2.30;99.90;;;;;;4955796;29;20028;-74
2023/11/23 04:00:36;;;;;;;11.57;6.10;;;2.30;99.90;;;;;;4956949;29;20087;-73
2023/11/23 04:03:03;;;;;;;13.27;6.07;;;2.30;99.90;;;;;;4971235;28;20027;-74
2023/11/23 04:05:28;;;;;;;12.57;6.37;;;2.20;99.90;;;;;;4955603;29;20035;-74
2023/11/23 04:07:54;;;;;;;13.33;6.63;;;2.30;99.90;;;;;;4955091;29;20085;-74
2023/11/23 04:10:20;;;;;;;14.70;6.63;;;2.20;99.90;;;;;;4955634;29;20079;-74
2023/11/23 04:12:47;;;;;;;11.87;6.00;;;2.20;99.90;;;;;;4955365;29;20379;-78
2023/11/23 04:15:12;;;;;;;12.53;6.37;;;2.30;99.90;;;;;;4955468;29;20062;-74
2023/11/23 04:17:38;;;;;;;14.03;6.07;;;2.20;99.90;;;;;;4955439;29;20035;-74
2023/11/23 04:20:05;;;;;;;11.03;5.63;;;2.30;99.90;;;;;;4954859;29;20503;-74
2023/11/23 04:22:30;;;;;;;12.10;6.80;;;2.30;99.90;;;;;;4954787;29;20499;-74
2023/11/23 04:24:56;;;;;;;14.03;6.87;;;2.20;99.90;;;;;;4956041;29;20031;-75
2023/11/23 04:27:21;;;;;;;17.03;7.40;;;2.20;99.90;;;;;;4956700;29;20028;-74
2023/11/23 04:29:48;;;;;;;12.67;6.73;;;2.20;99.90;;;;;;4954809;29;20122;-75
2023/11/23 04:32:14;;;;;;;12.73;6.60;;;2.20;99.90;;;;;;4955397;29;20038;-74
2023/11/23 04:34:40;;;;;;;12.47;6.10;;;2.20;99.90;;;;;;4955077;29;20396;-74
2023/11/23 04:37:06;;;;;;;12.07;6.40;;;2.20;99.90;;;;;;4955219;28;20439;-74
2023/11/23 04:39:31;;;;;;;16.13;6.53;;;2.20;99.90;;;;;;4954974;29;20483;-74
2023/11/23 04:41:57;;;;;;;14.53;7.13;;;2.20;99.90;;;;;;4954416;29;20033;-74
2023/11/23 04:44:23;;;;;;;12.73;6.67;;;2.10;99.90;;;;;;4954934;29;20502;-74
2023/11/23 04:46:49;;;;;;;11.33;6.00;;;2.10;99.90;;;;;;4954496;29;20124;-78
2023/11/23 04:49:16;;;;;;;12.80;6.40;;;2.10;99.90;;;;;;4955166;29;20028;-75
2023/11/23 04:51:41;;;;;;;13.73;6.57;;;2.10;99.90;;;;;;4970909;28;20082;-74
2023/11/23 04:54:07;;;;;;;13.70;5.90;;;2.10;99.90;;;;;;4970506;28;20740;-74
2023/11/23 04:56:33;;;;;;;14.77;6.80;;;2.10;99.90;;;;;;4954641;29;20448;-74
2023/11/23 04:58:59;;;;;;;11.90;7.00;;;2.10;99.90;;;;;;4970391;28;20042;-74
2023/11/23 05:01:24;;;;;;;13.63;6.17;;;2.00;99.90;;;;;;4970704;28;20069;-74
2023/11/23 05:03:50;;;;;;;14.60;6.80;;;2.10;99.90;;;;;;4954180;29;20027;-75
2023/11/23 05:06:15;;;;;;;16.17;6.60;;;2.00;99.90;;;;;;4954548;29;20383;-74
2023/11/23 05:08:42;;;;;;;12.13;6.53;;;2.00;99.90;;;;;;4955699;29;20102;-74
2023/11/23 05:11:07;;;;;;;13.43;6.30;;;2.00;99.90;;;;;;4954042;29;20059;-74
2023/11/23 05:13:34;;;;;;;13.00;6.50;;;2.00;99.90;;;;;;4954453;29;20052;-75
2023/11/23 05:15:59;;;;;;;11.33;6.30;;;2.00;99.90;;;;;;4954007;29;20042;-74
2023/11/23 05:18:25;;;;;;;13.93;6.43;;;2.10;99.90;;;;;;4954295;29;20031;-74
2023/11/23 05:20:51;;;;;;;15.17;7.30;;;2.10;99.90;;;;;;4953982;29;20027;-75
2023/11/23 05:23:16;;;;;;;13.70;6.77;;;2.10;99.90;;;;;;4936381;29;20032;-74
2023/11/23 05:25:42;;;;;;;13.50;6.60;;;2.10;99.90;;;;;;4919235;29;20031;-74
2023/11/23 05:28:08;;;;;;;13.97;7.07;;;2.10;99.90;;;;;;4918852;29;20031;-74
2023/11/23 05:30:34;;;;;;;13.47;7.00;;;2.10;99.90;;;;;;4935851;29;20034;-75
2023/11/23 05:33:04;;;;;;;15.10;7.60;;;2.10;99.90;;;;;;4935673;29;20027;-74
2023/11/23 05:35:30;;;;;;;14.53;6.67;;;2.10;99.90;;;;;;4918958;29;20134;-74
2023/11/23 05:37:57;;;;;;;11.97;6.63;;;2.10;99.90;;;;;;4918588;29;20043;-74
2023/11/23 05:40:22;;;;;;;13.80;7.37;;;2.20;99.90;;;;;;4919076;29;20362;-74
2023/11/23 05:42:49;;;;;;;14.47;6.73;;;2.30;99.90;;;;;;4919064;29;20491;-74
2023/11/23 05:45:15;;;;;;;15.73;7.10;;;2.20;99.90;;;;;;4918608;29;20035;-74
2023/11/23 05:47:41;;;;;;;14.13;6.77;;;2.30;99.90;;;;;;4918368;29;20468;-74
2023/11/23 05:50:07;;;;;;;13.93;6.50;;;2.30;99.90;;;;;;4917832;29;20083;-74
2023/11/23 05:52:34;;;;;;;12.47;6.73;;;2.30;99.90;;;;;;4935922;29;20111;-74
2023/11/23 05:54:59;;;;;;;15.70;6.57;;;2.40;99.90;;;;;;4918235;29;20361;-74
2023/11/23 05:57:25;;;;;;;13.77;7.03;;;2.40;99.90;;;;;;4935858;29;20032;-74
2023/11/23 05:59:51;;;;;;;13.20;6.53;;;2.40;99.90;;;;;;4935790;29;20464;-74
2023/11/23 06:02:18;;;;;;;11.43;6.33;;;2.40;99.90;;;;;;4918646;29;20376;-74
2023/11/23 06:04:45;;;;;;;12.73;7.07;;;2.40;99.90;;;;;;4918742;29;20023;-74
2023/11/23 06:07:10;;;;;;;14.40;6.40;;;2.40;99.90;;;;;;4918274;29;20032;-75
2023/11/23 06:09:39;;;;;;;10.67;6.13;;;2.50;99.90;;;;;;4936028;29;20476;-74
2023/11/23 06:12:05;;;;;;;13.77;6.10;;;2.50;99.90;;;;;;4934877;29;20059;-74
2023/11/23 06:14:40;;;;;;;13.70;7.30;;;2.40;99.90;;;;;;4918652;29;20439;-75
2023/11/23 06:17:14;;;;;;;12.97;6.13;;;2.40;99.90;;;;;;4918092;29;20039;-75
2023/11/23 06:19:40;;;;;;;13.63;7.10;;;2.40;99.90;;;;;;4918670;29;20035;-74
2023/11/23 06:22:06;;;;;;;14.40;6.30;;;2.50;99.90;;;;;;4935870;29;20078;-74
2023/11/23 06:24:32;;;;;;;13.17;6.63;;;2.50;99.90;;;;;;4953415;29;20078;-74
2023/11/23 06:26:58;;;;;;;12.10;6.53;;;2.50;99.90;;;;;;4953110;29;20035;-75
2023/11/23 06:29:23;;;;;;;13.67;6.40;;;2.50;99.90;;;;;;4953688;29;20377;-75
2023/11/23 06:31:50;;;;;;;12.33;6.40;;;2.50;99.90;;;;;;4954712;29;20427;-74
2023/11/23 06:34:16;;;;;;;13.13;5.77;;;2.50;99.90;;;;;;4952908;29;20166;-74
2023/11/23 06:36:42;;;;;;;11.80;6.33;;;2.60;99.90;;;;;;4953443;29;20038;-74
2023/11/23 06:39:09;;;;;;;13.47;5.87;;;2.60;99.90;;;;;;4952953;29;20027;-74
2023/11/23 06:41:35;;;;;;;10.00;5.40;;;2.70;99.90;;;;;;4953547;29;20030;-74
2023/11/23 06:44:00;;;;;;;11.97;6.03;;;2.60;99.90;;;;;;4953733;28;20023;-74
2023/11/23 06:46:26;;;;;;;12.67;6.43;;;2.70;99.90;;;;;;4953503;29;20464;-74
2023/11/23 06:48:52;;;;;;;13.23;5.80;;;2.70;99.90;;;;;;4953308;29;20020;-73
2023/11/23 06:51:17;;;;;;;13.80;6.03;;;2.70;99.90;;;;;;4952774;29;20028;-74
2023/11/23 06:53:46;;;;;;;12.40;5.87;;;2.70;99.90;;;;;;4953151;29;20066;-74
2023/11/23 06:56:15;;;;;;;14.10;6.63;;;2.80;99.90;;;;;;4952622;29;20364;-74
2023/11/23 06:58:42;;;;;;;13.03;7.17;;;2.80;99.90;;;;;;4953244;28;20035;-74
2023/11/23 07:01:09;;;;;;;13.30;6.77;;;2.80;99.90;;;;;;4955946;29;20519;-73
2023/11/23 07:03:36;;;;;;;12.93;6.70;;;2.90;99.90;;;;;;4956807;29;20030;-73
2023/11/23 07:06:02;;;;;;;11.00;6.57;;;2.90;99.90;;;;;;4957554;28;20039;-74
2023/11/23 07:08:28;;;;;;;13.10;6.33;;;2.90;99.90;;;;;;4957946;29;20086;-73
2023/11/23 07:10:54;;;;;;;10.63;6.00;;;3.00;99.90;;;;;;4972828;28;20039;-74
2023/11/23 07:13:20;;;;;;;17.13;6.30;;;3.00;99.90;;;;;;4956226;29;20419;-73
2023/11/23 07:15:46;;;;;;;11.67;5.40;;;3.10;99.90;;;;;;4957495;28;20456;-74
2023/11/23 07:18:13;;;;;;;13.50;5.97;;;3.10;99.90;;;;;;4955972;29;20031;-73
2023/11/23 07:20:38;;;;;;;12.10;5.90;;;3.20;99.90;;;;;;4956486;29;20100;-73
2023/11/23 07:23:04;;;;;;;12.67;6.43;;;3.20;99.90;;;;;;4938446;29;20488;-74
2023/11/23 07:25:31;;;;;;;12.67;5.90;;;3.20;99.90;;;;;;4921418;29;20039;-73
2023/11/23 07:27:57;;;;;;;14.67;6.87;;;3.30;99.90;;;;;;4937975;29;20140;-81
2023/11/23 07:30:23;;;;;;;11.47;6.77;;;3.20;99.90;;;;;;4938424;29;20114;-74
2023/11/23 07:32:48;;;;;;;13.00;6.33;;;3.30;99.90;;;;;;4928769;29;20032;-74
2023/11/23 07:35:14;;;;;;;13.30;6.37;;;3.30;99.90;;;;;;4937272;29;20452;-74
2023/11/23 07:37:41;;;;;;;12.50;6.37;;;3.30;99.90;;;;;;4928345;29;20097;-74
2023/11/23 07:40:13;;;;;;;14.73;7.37;;;3.20;99.90;;;;;;4937324;29;20154;-74
2023/11/23 07:42:40;;;;;;;12.50;6.33;;;3.30;99.90;;;;;;4928367;29;20093;-75
2023/11/23 07:45:07;;;;;;;12.73;6.73;;;3.30;99.90;;;;;;4925503;29;20031;-75
2023/11/23 07:47:32;;;;;;;12.13;6.40;;;3.30;99.90;;;;;;4937871;29;20031;-74
2023/11/23 07:50:00;;;;;;;10.00;6.00;;;3.30;99.90;;;;;;4936544;29;20028;-81
2023/11/23 07:52:26;;;;;;;11.87;6.57;;;3.30;99.90;;;;;;4936404;29;20066;-74
2023/11/23 07:54:51;;;;;;;13.23;5.93;;;3.40;99.90;;;;;;4937853;29;20035;-74
2023/11/23 07:57:19;;;;;;;14.80;6.37;;;3.40;99.90;;;;;;4935732;29;20437;-74
2023/11/23 07:59:44;;;;;;;13.80;6.80;;;3.30;99.90;;;;;;4930412;29;20028;-74
2023/11/23 08:02:10;;;;;;;10.90;5.87;;;3.40;99.90;;;;;;4934463;29;20031;-75
2023/11/23 08:04:36;;;;;;;11.73;5.57;;;3.40;99.90;;;;;;4928007;29;20500;-74
2023/11/23 08:07:01;;;;;;;13.97;5.80;;;3.40;99.90;;;;;;4937018;29;20042;-74
2023/11/23 08:09:27;;;;;;;13.43;6.50;;;3.40;99.90;;;;;;4927871;29;20480;-74
2023/11/23 08:11:55;;;;;;;10.70;5.63;;;3.40;99.90;;;;;;4926988;29;20031;-74
2023/11/23 08:14:21;;;;;;;12.50;5.50;;;3.40;99.90;;;;;;4928948;29;20118;-75
2023/11/23 08:16:47;;;;;;;12.97;5.90;;;3.50;99.90;;;;;;4930075;29;20454;-74
2023/11/23 08:19:14;;;;;;;10.57;4.47;;;3.40;99.90;;;;;;4936463;29;20027;-74
2023/11/23 08:21:40;;;;;;;7.90;4.30;;;3.50;99.90;;;;;;4934815;29;20543;-74
2023/11/23 08:24:07;;;;;;;9.43;4.43;;;3.50;99.90;;;;;;4954276;29;20035;-76
2023/11/23 08:26:32;;;;;;;9.77;4.83;;;3.50;99.90;;;;;;4954881;29;20082;-74
2023/11/23 08:28:58;;;;;;;9.33;4.50;;;3.50;99.90;;;;;;4954864;28;20019;-74
2023/11/23 08:31:28;;;;;;;11.27;4.97;;;3.50;99.90;;;;;;4954452;29;20113;-74
2023/11/23 08:33:55;;;;;;;10.47;4.70;;;3.50;99.90;;;;;;4955068;29;20118;-74
2023/11/23 08:36:21;;;;;;;8.13;4.30;;;3.50;99.90;;;;;;4955854;28;20062;-74
2023/11/23 08:38:47;;;;;;;7.57;4.20;;;3.60;99.90;;;;;;4955100;29;20031;-74
2023/11/23 08:41:13;;;;;;;10.67;4.47;;;3.60;99.90;;;;;;4954659;29;20085;-74
2023/11/23 08:43:38;;;;;;;10.70;4.47;;;3.60;99.90;;;;;;4955059;29;20489;-74
2023/11/23 08:46:05;;;;;;;9.40;4.93;;;3.70;99.90;;;;;;4954413;29;20046;-74
2023/11/23 08:48:30;;;;;;;8.60;4.20;;;3.80;99.90;;;;;;4956117;28;20390;-74
2023/11/23 08:50:57;;;;;;;8.70;4.23;;;3.80;99.90;;;;;;4949292;28;20035;-74
2023/11/23 08:53:24;;;;;;;8.70;4.27;;;3.90;99.90;;;;;;4953397;29;20031;-73
2023/11/23 08:55:50;;;;;;;8.53;4.00;;;3.90;99.90;;;;;;4954181;29;20361;-73
2023/11/23 08:58:16;;;;;;;11.10;4.83;;;4.00;99.90;;;;;;4953821;29;20403;-74
2023/11/23 09:00:42;;;;;;;8.63;4.50;;;4.00;99.90;;;;;;4954212;29;20050;-73
2023/11/23 09:03:09;;;;;;;8.47;4.23;;;4.10;99.90;;;;;;4954875;29;20082;-74
2023/11/23 09:05:34;;;;;;;9.60;5.07;;;4.10;99.90;;;;;;4953940;29;20031;-74
2023/11/23 09:08:06;;;;;;;10.83;4.60;;;4.20;99.90;;;;;;4954591;29;20400;-74
2023/11/23 09:10:32;;;;;;;10.30;4.30;;;4.20;99.90;;;;;;4953792;29;20464;-74
2023/11/23 09:12:58;;;;;;;8.83;4.30;;;4.30;99.90;;;;;;4953686;29;20023;-74
2023/11/23 09:15:24;;;;;;;8.80;4.57;;;4.30;99.90;;;;;;4952933;29;20027;-74
2023/11/23 09:17:51;;;;;;;8.87;4.10;;;4.40;99.90;;;;;;4953794;29;20053;-73
2023/11/23 09:20:16;;;;;;;7.17;3.73;;;4.40;99.90;;;;;;4954034;28;20480;-74
2023/11/23 09:22:43;;;;;;;6.83;4.10;;;4.40;99.90;;;;;;4937272;29;20055;-75
2023/11/23 09:25:08;;;;;;;7.93;4.20;;;4.50;99.90;;;;;;4952901;29;20146;-74
2023/11/23 09:27:36;;;;;;;8.83;3.70;;;4.50;99.90;;;;;;4953440;29;20114;-73
2023/11/23 09:30:06;;;;;;;9.37;4.37;;;4.50;99.90;;;;;;4958381;28;20034;-83
2023/11/23 09:32:38;;;;;;;8.17;3.77;;;4.50;99.90;;;;;;4953560;29;20158;-73
2023/11/23 09:35:06;;;;;;;9.13;4.28;;;4.60;99.90;;;;;;4954512;28;20027;-74
2023/11/23 09:37:32;;;;;;;6.40;3.83;;;4.70;99.90;;;;;;4953413;29;20038;-74
2023/11/23 09:39:58;;;;;;;7.80;3.77;;;4.60;99.90;;;;;;4953516;29;20031;-75
2023/11/23 09:42:26;;;;;;;8.67;4.10;;;4.60;99.90;;;;;;4954250;28;20102;-75
2023/11/23 09:44:56;;;;;;;6.87;3.70;;;4.60;99.90;;;;;;4953334;29;20027;-73
2023/11/23 09:47:31;;;;;;;6.73;3.23;;;4.60;99.90;;;;;;4952900;29;20455;-75
2023/11/23 09:49:59;;;;;;;5.93;3.37;;;4.70;99.90;;;;;;4954100;28;20436;-74
2023/11/23 09:52:29;;;;;;;11.00;4.17;;;4.60;99.90;;;;;;4952836;29;20039;-73
2023/11/23 09:54:59;;;;;;;8.13;3.23;;;4.80;99.90;;;;;;4954748;28;20034;-74
2023/11/23 09:57:25;;;;;;;7.23;3.23;;;4.80;99.90;;;;;;4952728;29;20122;-74
2023/11/23 09:59:50;;;;;;;7.67;3.60;;;4.90;99.90;;;;;;4953258;29;20110;-74
2023/11/23 10:02:22;;;;;;;6.63;3.17;;;4.90;99.90;;;;;;4952698;29;20125;-73
2023/11/23 10:04:52;;;;;;;5.97;2.97;;;4.90;99.90;;;;;;4938080;29;20023;-73
2023/11/23 10:07:18;;;;;;;6.10;3.13;;;4.90;99.90;;;;;;4952769;29;20039;-73
2023/11/23 10:09:44;;;;;;;7.50;3.27;;;4.90;99.90;;;;;;4952907;29;20069;-73
2023/11/23 10:12:10;;;;;;;9.23;3.40;;;5.00;99.90;;;;;;4952521;29;20031;-73
2023/11/23 10:14:36;;;;;;;9.07;3.30;;;5.00;99.90;;;;;;4953088;29;20027;-75
2023/11/23 10:17:02;;;;;;;8.17;3.40;;;5.00;99.90;;;;;;4951783;29;20122;-74
2023/11/23 10:19:27;;;;;;;5.93;3.03;;;5.10;99.90;;;;;;4944025;29;20417;-75
2023/11/23 10:21:58;;;;;;;6.87;3.37;;;5.10;99.90;;;;;;4944795;28;20056;-74
2023/11/23 10:24:27;;;;;;;6.40;2.97;;;5.10;99.90;;;;;;4917252;29;20039;-74
2023/11/23 10:26:53;;;;;;;6.10;3.60;;;5.10;99.90;;;;;;4925122;29;20469;-74
2023/11/23 10:29:23;;;;;;;8.43;3.77;;;5.10;99.90;;;;;;4934030;29;20099;-74
2023/11/23 10:31:50;;;;;;;9.47;3.73;;;5.20;99.90;;;;;;4920325;29;20027;-74
2023/11/23 10:34:18;;;;;;;5.93;3.07;;;5.10;99.90;;;;;;4948236;28;20028;-74
2023/11/23 10:36:47;;;;;;;8.43;3.73;;;5.10;99.90;;;;;;4927514;29;20496;-74
2023/11/23 10:39:18;;;;;;;5.60;3.10;;;5.20;99.90;;;;;;4937869;29;20090;-74
2023/11/23 10:41:44;;;;;;;4.75;2.88;;;5.10;99.90;;;;;;4938184;29;20035;-75
2023/11/23 10:44:12;;;;;;;6.80;3.40;;;5.20;99.90;;;;;;4927620;29;20114;-74
2023/11/23 10:46:40;;;;;;;5.87;3.40;;;5.20;99.90;;;;;;4927478;29;20472;-73
2023/11/23 10:49:07;;;;;;;5.47;2.67;;;5.10;99.90;;;;;;4937709;29;20035;-74
2023/11/23 10:51:34;;;;;;;5.90;3.07;;;5.10;99.90;;;;;;4937910;29;20035;-74
2023/11/23 10:53:59;;;;;;;6.30;2.83;;;5.10;99.90;;;;;;4930590;29;20370;-73
2023/11/23 10:56:30;;;;;;;7.50;3.43;;;5.20;99.90;;;;;;4920810;29;20038;-73
2023/11/23 10:59:03;;;;;;;5.27;2.90;;;5.20;99.90;;;;;;4938512;29;20039;-74
2023/11/23 11:01:31;;;;;;;6.03;3.23;;;5.20;99.90;;;;;;4921262;29;20094;-74
2023/11/23 11:03:57;;;;;;;6.53;3.27;;;5.20;99.90;;;;;;4921084;29;20054;-73
2023/11/23 11:06:23;;;;;;;8.17;3.60;;;5.20;99.90;;;;;;4920647;29;20464;-74
2023/11/23 11:08:49;;;;;;;8.73;3.50;;;5.30;99.90;;;;;;4937171;29;20436;-73
2023/11/23 11:11:26;;;;;;;7.57;4.03;;;5.30;99.90;;;;;;4937700;29;20023;-73
2023/11/23 11:14:02;;;;;;;7.30;3.73;;;5.30;99.90;;;;;;4938143;29;20024;-74
2023/11/23 11:16:35;;;;;;;7.97;3.20;;;5.30;99.90;;;;;;4922431;29;20055;-73
2023/11/23 11:19:06;;;;;;;7.77;3.47;;;5.40;99.90;;;;;;4937982;29;20449;-75
2023/11/23 11:21:48;;;;;;;8.15;3.03;;;5.30;99.90;;;;;;4929368;29;20083;-74
2023/11/23 11:24:23;;;;;;;6.88;3.22;;;5.30;99.90;;;;;;4955424;29;20506;-73
2023/11/23 11:26:49;;;;;;;7.50;3.60;;;5.40;99.90;;;;;;4945786;29;20039;-73
2023/11/23 11:29:18;;;;;;;9.90;3.57;;;5.40;99.90;;;;;;4956704;28;20349;-72
2023/11/23 11:31:48;;;;;;;7.67;3.47;;;5.30;99.90;;;;;;4956896;29;20027;-74
2023/11/23 11:34:26;;;;;;;9.10;3.63;;;5.40;99.90;;;;;;4955489;29;20440;-74
2023/11/23 11:36:59;;;;;;;7.57;3.47;;;5.40;99.90;;;;;;4956216;29;20472;-74
2023/11/23 11:39:33;;;;;;;7.40;3.83;;;5.40;99.90;;;;;;4956980;28;20050;-74
2023/11/23 11:42:00;;;;;;;7.17;3.30;;;5.50;99.90;;;;;;4956076;29;20031;-74
2023/11/23 11:44:29;;;;;;;5.63;3.47;;;5.50;99.90;;;;;;4955667;29;20085;-74
2023/11/23 11:46:58;;;;;;;10.30;4.30;;;5.50;99.90;;;;;;4949358;28;20039;-73
2023/11/23 11:49:24;;;;;;;8.60;3.83;;;5.50;99.90;;;;;;4954956;29;20037;-73
2023/11/23 11:51:50;;;;;;;7.77;3.67;;;5.50;99.90;;;;;;4955434;29;20039;-73
2023/11/23 11:54:20;;;;;;;6.33;3.43;;;5.60;99.90;;;;;;4954730;29;20031;-73
2023/11/23 11:56:49;;;;;;;6.60;3.43;;;5.60;99.90;;;;;;4956650;28;20444;-73
2023/11/23 11:59:20;;;;;;;6.53;3.20;;;5.60;99.90;;;;;;4951971;29;20035;-73
2023/11/23 12:01:47;;;;;;;7.10;3.80;;;5.60;99.90;;;;;;4956649;28;20047;-73
2023/11/23 12:04:19;;;;;;;6.50;3.70;;;5.60;99.90;;;;;;4954285;29;20035;-74
2023/11/23 12:06:48;;;;;;;10.53;3.87;;;5.60;99.90;;;;;;4955176;29;20134;-73
2023/11/23 12:09:19;;;;;;;7.90;3.70;;;5.60;99.90;;;;;;4938944;29;20110;-74
2023/11/23 12:11:46;;;;;;;7.27;3.37;;;5.70;99.90;;;;;;4955170;29;20490;-74
2023/11/23 12:14:12;;;;;;;5.83;3.33;;;5.70;99.90;;;;;;4954414;29;20023;-73
2023/11/23 12:16:38;;;;;;;6.63;3.83;;;5.70;99.90;;;;;;4954708;29;20477;-73
2023/11/23 12:19:20;;;;;;;7.97;3.83;;;5.70;99.90;;;;;;4956027;28;20106;-73
2023/11/23 12:21:56;;;;;;;7.67;3.80;;;5.60;99.90;;;;;;4954502;29;20098;-75
2023/11/23 12:24:23;;;;;;;6.57;3.57;;;5.70;99.90;;;;;;4955460;28;20094;-73
2023/11/23 12:26:52;;;;;;;6.70;3.60;;;5.70;99.90;;;;;;4954866;29;20039;-75
2023/11/23 12:29:25;;;;;;;7.80;3.30;;;5.70;99.90;;;;;;4954319;29;20027;-73
2023/11/23 12:31:51;;;;;;;6.80;3.40;;;5.70;99.90;;;;;;4954815;29;20034;-73
2023/11/23 12:34:19;;;;;;;7.83;3.57;;;5.70;99.90;;;;;;4954130;29;20035;-73
2023/11/23 12:36:46;;;;;;;5.90;3.30;;;5.80;99.90;;;;;;4954133;29;20031;-73
2023/11/23 12:39:13;;;;;;;7.30;3.90;;;5.80;99.90;;;;;;4954047;29;20062;-73
2023/11/23 12:41:40;;;;;;;8.13;4.27;;;5.90;99.90;;;;;;4969976;28;20027;-74
2023/11/23 12:44:06;;;;;;;7.07;3.53;;;5.90;99.90;;;;;;4954198;29;20031;-79
2023/11/23 12:46:31;;;;;;;6.63;3.80;;;6.00;99.90;;;;;;4954371;29;20043;-74
2023/11/23 12:48:57;;;;;;;8.10;3.83;;;6.00;99.90;;;;;;4954505;29;20027;-73